sensor_id;sensor_type;location;lat;lon;timestamp;temperature;humidity
7000;DHT22;3540;53.242;10.408;2022-08-19T00:00:07;18.70;99.90
7000;DHT22;3540;53.242;10.408;2022-08-19T00:02:34;18.70;99.90
7000;DHT22;3540;53.242;10.408;2022-08-19T00:05:00;18.60;99.90
7000;DHT22;3540;53.242;10.408;2022-08-19T00:07:25;18.60;99.90
7000;DHT22;3540;53.242;10.408;2022-08-19T00:09:51;18.60;99.90
7000;DHT22;3540;53.242;10.408;2022-08-19T00:12:17;18.60;99.90
7000;DHT22;3540;53.242;10.408;2022-08-19T00:14:42;18.60;99.90
7000;DHT22;3540;53.242;10.408;2022-08-19T00:17:09;18.60;99.90
7000;DHT22;3540;53.242;10.408;2022-08-19T00:19:36;18.50;99.90
7000;DHT22;3540;53.242;10.408;2022-08-19T00:22:02;18.50;99.90
7000;DHT22;3540;53.242;10.408;2022-08-19T00:24:28;18.50;99.90
7000;DHT22;3540;53.242;10.408;2022-08-19T00:26:55;18.50;99.90
7000;DHT22;3540;53.242;10.408;2022-08-19T00:29:23;18.50;99.90
7000;DHT22;3540;53.242;10.408;2022-08-19T00:31:50;18.50;99.90
7000;DHT22;3540;53.242;10.408;2022-08-19T00:34:20;18.50;99.90
7000;DHT22;3540;53.242;10.408;2022-08-19T00:36:46;18.40;99.90
7000;DHT22;3540;53.242;10.408;2022-08-19T00:39:17;18.40;99.90
7000;DHT22;3540;53.242;10.408;2022-08-19T00:41:44;18.50;99.90
7000;DHT22;3540;53.242;10.408;2022-08-19T00:44:24;18.50;99.90
7000;DHT22;3540;53.242;10.408;2022-08-19T00:46:52;18.50;99.90
7000;DHT22;3540;53.242;10.408;2022-08-19T00:51:57;18.40;99.90
7000;DHT22;3540;53.242;10.408;2022-08-19T00:54:24;18.50;99.90
7000;DHT22;3540;53.242;10.408;2022-08-19T00:56:50;18.50;99.90
7000;DHT22;3540;53.242;10.408;2022-08-19T00:59:18;18.50;99.90
7000;DHT22;3540;53.242;10.408;2022-08-19T01:01:45;18.50;99.90
7000;DHT22;3540;53.242;10.408;2022-08-19T01:04:12;18.50;99.90
7000;DHT22;3540;53.242;10.408;2022-08-19T01:06:39;18.50;99.90
7000;DHT22;3540;53.242;10.408;2022-08-19T01:09:07;18.50;99.90
7000;DHT22;3540;53.242;10.408;2022-08-19T01:11:37;18.50;99.90
7000;DHT22;3540;53.242;10.408;2022-08-19T01:14:05;18.50;99.90
7000;DHT22;3540;53.242;10.408;2022-08-19T01:16:32;18.50;99.90
7000;DHT22;3540;53.242;10.408;2022-08-19T01:18:58;18.50;99.90
7000;DHT22;3540;53.242;10.408;2022-08-19T01:21:26;18.50;99.90
7000;DHT22;3540;53.242;10.408;2022-08-19T01:23:53;18.40;99.90
7000;DHT22;3540;53.242;10.408;2022-08-19T01:26:22;18.50;99.90
7000;DHT22;3540;53.242;10.408;2022-08-19T01:28:50;18.40;99.90
7000;DHT22;3540;53.242;10.408;2022-08-19T01:31:23;18.40;99.90
7000;DHT22;3540;53.242;10.408;2022-08-19T01:33:51;18.40;99.90
7000;DHT22;3540;53.242;10.408;2022-08-19T01:36:33;18.40;99.90
7000;DHT22;3540;53.242;10.408;2022-08-19T01:38:59;18.50;99.90
7000;DHT22;3540;53.242;10.408;2022-08-19T01:41:26;18.40;99.90
7000;DHT22;3540;53.242;10.408;2022-08-19T01:43:53;18.40;99.90
7000;DHT22;3540;53.242;10.408;2022-08-19T01:46:19;18.40;99.90
7000;DHT22;3540;53.242;10.408;2022-08-19T01:48:45;18.40;99.90
7000;DHT22;3540;53.242;10.408;2022-08-19T01:51:11;18.40;99.90
7000;DHT22;3540;53.242;10.408;2022-08-19T01:53:38;18.40;99.90
7000;DHT22;3540;53.242;10.408;2022-08-19T01:56:04;18.40;99.90
7000;DHT22;3540;53.242;10.408;2022-08-19T01:58:36;18.40;99.90
7000;DHT22;3540;53.242;10.408;2022-08-19T02:01:05;18.40;99.90
7000;DHT22;3540;53.242;10.408;2022-08-19T02:03:31;18.40;99.90
7000;DHT22;3540;53.242;10.408;2022-08-19T02:05:58;18.30;99.90
7000;DHT22;3540;53.242;10.408;2022-08-19T02:08:26;18.30;99.90
7000;DHT22;3540;53.242;10.408;2022-08-19T02:10:52;18.30;99.90
7000;DHT22;3540;53.242;10.408;2022-08-19T02:13:18;18.30;99.90
7000;DHT22;3540;53.242;10.408;2022-08-19T02:15:44;18.30;99.90
7000;DHT22;3540;53.242;10.408;2022-08-19T02:18:10;18.30;99.90
7000;DHT22;3540;53.242;10.408;2022-08-19T02:20:38;18.20;99.90
7000;DHT22;3540;53.242;10.408;2022-08-19T02:23:05;18.20;99.90
7000;DHT22;3540;53.242;10.408;2022-08-19T02:25:30;18.20;99.90
7000;DHT22;3540;53.242;10.408;2022-08-19T02:27:56;18.10;99.90
7000;DHT22;3540;53.242;10.408;2022-08-19T02:30:22;18.20;99.90
7000;DHT22;3540;53.242;10.408;2022-08-19T02:32:48;18.20;99.90
7000;DHT22;3540;53.242;10.408;2022-08-19T02:35:14;18.20;99.90
7000;DHT22;3540;53.242;10.408;2022-08-19T02:37:41;18.20;99.90
7000;DHT22;3540;53.242;10.408;2022-08-19T02:40:27;18.30;99.90
7000;DHT22;3540;53.242;10.408;2022-08-19T02:42:52;18.20;99.90
7000;DHT22;3540;53.242;10.408;2022-08-19T02:45:18;18.20;99.90
7000;DHT22;3540;53.242;10.408;2022-08-19T02:47:44;18.20;99.90
7000;DHT22;3540;53.242;10.408;2022-08-19T02:50:09;18.20;99.90
7000;DHT22;3540;53.242;10.408;2022-08-19T02:52:35;18.10;99.90
7000;DHT22;3540;53.242;10.408;2022-08-19T02:55:01;18.10;99.90
7000;DHT22;3540;53.242;10.408;2022-08-19T02:57:27;18.00;99.90
7000;DHT22;3540;53.242;10.408;2022-08-19T02:59:53;18.10;99.90
7000;DHT22;3540;53.242;10.408;2022-08-19T03:02:19;18.00;99.90
7000;DHT22;3540;53.242;10.408;2022-08-19T03:04:45;18.00;99.90
7000;DHT22;3540;53.242;10.408;2022-08-19T03:07:15;18.00;99.90
7000;DHT22;3540;53.242;10.408;2022-08-19T03:09:41;18.00;99.90
7000;DHT22;3540;53.242;10.408;2022-08-19T03:12:09;18.10;99.90
7000;DHT22;3540;53.242;10.408;2022-08-19T03:14:35;18.00;99.90
7000;DHT22;3540;53.242;10.408;2022-08-19T03:17:02;18.00;99.90
7000;DHT22;3540;53.242;10.408;2022-08-19T03:19:29;18.00;99.90
7000;DHT22;3540;53.242;10.408;2022-08-19T03:21:55;18.00;99.90
7000;DHT22;3540;53.242;10.408;2022-08-19T03:24:21;18.10;99.90
7000;DHT22;3540;53.242;10.408;2022-08-19T03:26:49;18.10;99.90
7000;DHT22;3540;53.242;10.408;2022-08-19T03:29:16;18.20;99.90
7000;DHT22;3540;53.242;10.408;2022-08-19T03:31:43;18.20;99.90
7000;DHT22;3540;53.242;10.408;2022-08-19T03:34:15;18.20;99.90
7000;DHT22;3540;53.242;10.408;2022-08-19T03:36:41;18.20;99.90
7000;DHT22;3540;53.242;10.408;2022-08-19T03:39:06;18.20;99.90
7000;DHT22;3540;53.242;10.408;2022-08-19T03:41:39;18.20;99.90
7000;DHT22;3540;53.242;10.408;2022-08-19T03:44:05;18.30;99.90
7000;DHT22;3540;53.242;10.408;2022-08-19T03:46:32;18.30;99.90
7000;DHT22;3540;53.242;10.408;2022-08-19T03:49:00;18.30;99.90
7000;DHT22;3540;53.242;10.408;2022-08-19T03:51:32;18.30;99.90
7000;DHT22;3540;53.242;10.408;2022-08-19T03:53:59;18.30;99.90
7000;DHT22;3540;53.242;10.408;2022-08-19T03:56:26;18.40;99.90
7000;DHT22;3540;53.242;10.408;2022-08-19T03:58:54;18.30;99.90
7000;DHT22;3540;53.242;10.408;2022-08-19T04:01:21;18.30;99.90
7000;DHT22;3540;53.242;10.408;2022-08-19T04:03:48;18.30;99.90
7000;DHT22;3540;53.242;10.408;2022-08-19T04:06:20;18.20;99.90
7000;DHT22;3540;53.242;10.408;2022-08-19T04:08:48;18.20;99.90
7000;DHT22;3540;53.242;10.408;2022-08-19T04:11:17;18.20;99.90
7000;DHT22;3540;53.242;10.408;2022-08-19T04:13:43;18.10;99.90
7000;DHT22;3540;53.242;10.408;2022-08-19T04:16:10;18.10;99.90
7000;DHT22;3540;53.242;10.408;2022-08-19T04:18:37;18.20;99.90
7000;DHT22;3540;53.242;10.408;2022-08-19T04:21:04;18.20;99.90
7000;DHT22;3540;53.242;10.408;2022-08-19T04:23:31;18.20;99.90
7000;DHT22;3540;53.242;10.408;2022-08-19T04:25:57;18.10;99.90
7000;DHT22;3540;53.242;10.408;2022-08-19T04:28:24;18.10;99.90
7000;DHT22;3540;53.242;10.408;2022-08-19T04:30:52;18.10;99.90
7000;DHT22;3540;53.242;10.408;2022-08-19T04:33:21;18.20;99.90
7000;DHT22;3540;53.242;10.408;2022-08-19T04:35:49;18.20;99.90
7000;DHT22;3540;53.242;10.408;2022-08-19T04:38:16;18.20;99.90
7000;DHT22;3540;53.242;10.408;2022-08-19T04:40:44;18.20;99.90
7000;DHT22;3540;53.242;10.408;2022-08-19T04:43:28;18.20;99.90
7000;DHT22;3540;53.242;10.408;2022-08-19T04:45:54;18.20;99.90
7000;DHT22;3540;53.242;10.408;2022-08-19T04:48:20;18.10;99.90
7000;DHT22;3540;53.242;10.408;2022-08-19T04:50:57;18.10;99.90
7000;DHT22;3540;53.242;10.408;2022-08-19T04:53:30;18.10;99.90
7000;DHT22;3540;53.242;10.408;2022-08-19T04:56:03;18.10;99.90
7000;DHT22;3540;53.242;10.408;2022-08-19T04:58:29;18.10;99.90
7000;DHT22;3540;53.242;10.408;2022-08-19T05:00:54;18.10;99.90
7000;DHT22;3540;53.242;10.408;2022-08-19T05:03:21;18.10;99.90
7000;DHT22;3540;53.242;10.408;2022-08-19T05:05:47;18.10;99.90
7000;DHT22;3540;53.242;10.408;2022-08-19T05:08:16;18.20;99.90
7000;DHT22;3540;53.242;10.408;2022-08-19T05:10:48;18.20;99.90
7000;DHT22;3540;53.242;10.408;2022-08-19T05:13:15;18.20;99.90
7000;DHT22;3540;53.242;10.408;2022-08-19T05:15:42;18.20;99.90
7000;DHT22;3540;53.242;10.408;2022-08-19T05:18:07;18.20;99.90
7000;DHT22;3540;53.242;10.408;2022-08-19T05:20:52;18.20;99.90
7000;DHT22;3540;53.242;10.408;2022-08-19T05:23:36;18.20;99.90
7000;DHT22;3540;53.242;10.408;2022-08-19T05:26:02;18.30;99.90
7000;DHT22;3540;53.242;10.408;2022-08-19T05:28:27;18.30;99.90
7000;DHT22;3540;53.242;10.408;2022-08-19T05:30:53;18.20;99.90
7000;DHT22;3540;53.242;10.408;2022-08-19T05:33:21;18.30;99.90
7000;DHT22;3540;53.242;10.408;2022-08-19T05:35:47;18.30;99.90
7000;DHT22;3540;53.242;10.408;2022-08-19T05:38:15;18.30;99.90
7000;DHT22;3540;53.242;10.408;2022-08-19T05:40:42;18.30;99.90
7000;DHT22;3540;53.242;10.408;2022-08-19T05:43:13;18.30;99.90
7000;DHT22;3540;53.242;10.408;2022-08-19T05:45:42;18.30;99.90
7000;DHT22;3540;53.242;10.408;2022-08-19T05:48:09;18.40;99.90
7000;DHT22;3540;53.242;10.408;2022-08-19T05:50:38;18.40;99.90
7000;DHT22;3540;53.242;10.408;2022-08-19T05:53:04;18.40;99.90
7000;DHT22;3540;53.242;10.408;2022-08-19T05:55:30;18.40;99.90
7000;DHT22;3540;53.242;10.408;2022-08-19T05:57:55;18.40;99.90
7000;DHT22;3540;53.242;10.408;2022-08-19T06:00:21;18.40;99.90
7000;DHT22;3540;53.242;10.408;2022-08-19T06:02:47;18.40;99.90
7000;DHT22;3540;53.242;10.408;2022-08-19T06:05:12;18.50;99.90
7000;DHT22;3540;53.242;10.408;2022-08-19T06:07:39;18.50;99.90
7000;DHT22;3540;53.242;10.408;2022-08-19T06:10:07;18.60;99.90
7000;DHT22;3540;53.242;10.408;2022-08-19T06:12:33;18.60;99.90
7000;DHT22;3540;53.242;10.408;2022-08-19T06:15:01;18.60;99.90
7000;DHT22;3540;53.242;10.408;2022-08-19T06:17:28;18.60;99.90
7000;DHT22;3540;53.242;10.408;2022-08-19T06:19:55;18.60;99.90
7000;DHT22;3540;53.242;10.408;2022-08-19T06:22:21;18.70;99.90
7000;DHT22;3540;53.242;10.408;2022-08-19T06:24:46;18.80;99.90
7000;DHT22;3540;53.242;10.408;2022-08-19T06:27:12;18.90;99.90
7000;DHT22;3540;53.242;10.408;2022-08-19T06:29:38;18.90;99.90
7000;DHT22;3540;53.242;10.408;2022-08-19T06:32:04;18.90;99.90
7000;DHT22;3540;53.242;10.408;2022-08-19T06:34:32;18.90;99.90
7000;DHT22;3540;53.242;10.408;2022-08-19T06:37:00;18.90;99.90
7000;DHT22;3540;53.242;10.408;2022-08-19T06:39:32;19.00;99.90
7000;DHT22;3540;53.242;10.408;2022-08-19T06:42:02;19.00;99.90
7000;DHT22;3540;53.242;10.408;2022-08-19T06:44:31;19.00;99.90
7000;DHT22;3540;53.242;10.408;2022-08-19T06:47:02;19.00;99.90
7000;DHT22;3540;53.242;10.408;2022-08-19T06:49:28;19.00;99.90
7000;DHT22;3540;53.242;10.408;2022-08-19T06:51:56;19.00;99.90
7000;DHT22;3540;53.242;10.408;2022-08-19T06:54:22;19.00;99.90
7000;DHT22;3540;53.242;10.408;2022-08-19T06:56:48;18.90;99.90
7000;DHT22;3540;53.242;10.408;2022-08-19T06:59:16;18.90;99.90
7000;DHT22;3540;53.242;10.408;2022-08-19T07:01:51;18.90;99.90
7000;DHT22;3540;53.242;10.408;2022-08-19T07:04:23;18.80;99.90
7000;DHT22;3540;53.242;10.408;2022-08-19T07:06:50;18.70;99.90
7000;DHT22;3540;53.242;10.408;2022-08-19T07:09:18;18.70;99.90
7000;DHT22;3540;53.242;10.408;2022-08-19T07:11:48;18.60;99.90
7000;DHT22;3540;53.242;10.408;2022-08-19T07:14:16;18.60;99.90
7000;DHT22;3540;53.242;10.408;2022-08-19T07:16:43;18.50;99.90
7000;DHT22;3540;53.242;10.408;2022-08-19T07:19:11;18.50;99.90
7000;DHT22;3540;53.242;10.408;2022-08-19T07:21:37;18.40;99.90
7000;DHT22;3540;53.242;10.408;2022-08-19T07:24:03;18.40;99.90
7000;DHT22;3540;53.242;10.408;2022-08-19T07:26:32;18.50;99.90
7000;DHT22;3540;53.242;10.408;2022-08-19T07:28:58;18.40;99.90
7000;DHT22;3540;53.242;10.408;2022-08-19T07:31:27;18.40;99.90
7000;DHT22;3540;53.242;10.408;2022-08-19T07:33:54;18.40;99.90
7000;DHT22;3540;53.242;10.408;2022-08-19T07:36:27;18.50;99.90
7000;DHT22;3540;53.242;10.408;2022-08-19T07:38:59;18.40;99.90
7000;DHT22;3540;53.242;10.408;2022-08-19T07:41:27;18.40;99.90
7000;DHT22;3540;53.242;10.408;2022-08-19T07:43:54;18.40;99.90
7000;DHT22;3540;53.242;10.408;2022-08-19T07:46:20;18.40;99.90
7000;DHT22;3540;53.242;10.408;2022-08-19T07:48:48;18.40;99.90
7000;DHT22;3540;53.242;10.408;2022-08-19T07:51:20;18.50;99.90
7000;DHT22;3540;53.242;10.408;2022-08-19T07:53:47;18.50;99.90
7000;DHT22;3540;53.242;10.408;2022-08-19T07:56:16;18.50;99.90
7000;DHT22;3540;53.242;10.408;2022-08-19T07:58:44;18.50;99.90
7000;DHT22;3540;53.242;10.408;2022-08-19T08:01:17;18.50;99.90
7000;DHT22;3540;53.242;10.408;2022-08-19T08:03:43;18.40;99.90
7000;DHT22;3540;53.242;10.408;2022-08-19T08:06:27;18.40;99.90
7000;DHT22;3540;53.242;10.408;2022-08-19T08:09:12;18.50;99.90
7000;DHT22;3540;53.242;10.408;2022-08-19T08:11:53;18.40;99.90
7000;DHT22;3540;53.242;10.408;2022-08-19T08:14:22;18.40;99.90
7000;DHT22;3540;53.242;10.408;2022-08-19T08:16:49;18.40;99.90
7000;DHT22;3540;53.242;10.408;2022-08-19T08:19:18;18.40;99.90
7000;DHT22;3540;53.242;10.408;2022-08-19T08:21:45;18.40;99.90
7000;DHT22;3540;53.242;10.408;2022-08-19T08:24:11;18.40;99.90
7000;DHT22;3540;53.242;10.408;2022-08-19T08:26:37;18.40;99.90
7000;DHT22;3540;53.242;10.408;2022-08-19T08:29:03;18.50;99.90
7000;DHT22;3540;53.242;10.408;2022-08-19T08:31:29;18.40;99.90
7000;DHT22;3540;53.242;10.408;2022-08-19T08:33:54;18.40;99.90
7000;DHT22;3540;53.242;10.408;2022-08-19T08:36:20;18.40;99.90
7000;DHT22;3540;53.242;10.408;2022-08-19T08:38:47;18.50;99.90
7000;DHT22;3540;53.242;10.408;2022-08-19T08:44:00;18.50;99.90
7000;DHT22;3540;53.242;10.408;2022-08-19T08:51:58;18.50;99.90
7000;DHT22;3540;53.242;10.408;2022-08-19T08:54:41;18.50;99.90
7000;DHT22;3540;53.242;10.408;2022-08-19T08:57:19;18.50;99.90
7000;DHT22;3540;53.242;10.408;2022-08-19T08:59:47;18.50;99.90
7000;DHT22;3540;53.242;10.408;2022-08-19T09:02:19;18.40;99.90
7000;DHT22;3540;53.242;10.408;2022-08-19T09:04:45;18.40;99.90
7000;DHT22;3540;53.242;10.408;2022-08-19T09:10:31;18.40;99.90
7000;DHT22;3540;53.242;10.408;2022-08-19T09:15:57;18.40;99.90
7000;DHT22;3540;53.242;10.408;2022-08-19T09:18:24;18.50;99.90
7000;DHT22;3540;53.242;10.408;2022-08-19T09:20:49;18.50;99.90
7000;DHT22;3540;53.242;10.408;2022-08-19T09:23:15;18.60;99.90
7000;DHT22;3540;53.242;10.408;2022-08-19T09:25:41;18.60;99.90
7000;DHT22;3540;53.242;10.408;2022-08-19T09:28:07;18.60;99.90
7000;DHT22;3540;53.242;10.408;2022-08-19T09:30:38;18.60;99.90
7000;DHT22;3540;53.242;10.408;2022-08-19T09:33:05;18.60;99.90
7000;DHT22;3540;53.242;10.408;2022-08-19T09:35:31;18.60;99.90
7000;DHT22;3540;53.242;10.408;2022-08-19T09:37:58;18.60;99.90
7000;DHT22;3540;53.242;10.408;2022-08-19T09:40:28;18.70;99.90
7000;DHT22;3540;53.242;10.408;2022-08-19T09:42:54;18.70;99.90
7000;DHT22;3540;53.242;10.408;2022-08-19T09:45:21;18.80;99.90
7000;DHT22;3540;53.242;10.408;2022-08-19T09:47:48;18.80;99.90
7000;DHT22;3540;53.242;10.408;2022-08-19T09:50:14;18.90;99.90
7000;DHT22;3540;53.242;10.408;2022-08-19T09:52:40;18.80;99.90
7000;DHT22;3540;53.242;10.408;2022-08-19T09:55:09;18.90;99.90
7000;DHT22;3540;53.242;10.408;2022-08-19T09:57:36;18.90;99.90
7000;DHT22;3540;53.242;10.408;2022-08-19T10:00:04;18.90;99.90
7000;DHT22;3540;53.242;10.408;2022-08-19T10:02:30;19.00;99.90
7000;DHT22;3540;53.242;10.408;2022-08-19T10:04:56;18.90;99.90
7000;DHT22;3540;53.242;10.408;2022-08-19T10:07:40;19.00;99.90
7000;DHT22;3540;53.242;10.408;2022-08-19T10:10:06;19.00;99.90
7000;DHT22;3540;53.242;10.408;2022-08-19T10:12:33;18.90;99.90
7000;DHT22;3540;53.242;10.408;2022-08-19T10:15:00;18.90;99.90
7000;DHT22;3540;53.242;10.408;2022-08-19T10:17:26;18.90;99.90
7000;DHT22;3540;53.242;10.408;2022-08-19T10:19:52;18.90;99.90
7000;DHT22;3540;53.242;10.408;2022-08-19T10:22:18;19.00;99.90
7000;DHT22;3540;53.242;10.408;2022-08-19T10:24:47;19.10;99.90
7000;DHT22;3540;53.242;10.408;2022-08-19T10:27:13;19.10;99.90
7000;DHT22;3540;53.242;10.408;2022-08-19T10:29:39;19.20;99.90
7000;DHT22;3540;53.242;10.408;2022-08-19T10:32:07;19.30;99.90
7000;DHT22;3540;53.242;10.408;2022-08-19T10:34:35;19.40;99.90
7000;DHT22;3540;53.242;10.408;2022-08-19T10:37:01;19.40;99.90
7000;DHT22;3540;53.242;10.408;2022-08-19T10:39:29;19.40;99.90
7000;DHT22;3540;53.242;10.408;2022-08-19T10:41:56;19.40;99.90
7000;DHT22;3540;53.242;10.408;2022-08-19T10:44:22;19.40;99.90
7000;DHT22;3540;53.242;10.408;2022-08-19T10:46:49;19.40;99.90
7000;DHT22;3540;53.242;10.408;2022-08-19T10:49:15;19.40;99.90
7000;DHT22;3540;53.242;10.408;2022-08-19T10:51:41;19.40;99.90
7000;DHT22;3540;53.242;10.408;2022-08-19T10:54:26;19.40;99.90
7000;DHT22;3540;53.242;10.408;2022-08-19T10:57:12;19.40;99.90
7000;DHT22;3540;53.242;10.408;2022-08-19T10:59:37;19.60;99.90
7000;DHT22;3540;53.242;10.408;2022-08-19T11:02:06;19.70;99.90
7000;DHT22;3540;53.242;10.408;2022-08-19T11:04:32;19.70;99.90
7000;DHT22;3540;53.242;10.408;2022-08-19T11:06:58;19.70;99.90
7000;DHT22;3540;53.242;10.408;2022-08-19T11:09:26;19.70;99.90
7000;DHT22;3540;53.242;10.408;2022-08-19T11:11:55;19.70;99.90
7000;DHT22;3540;53.242;10.408;2022-08-19T11:14:22;19.90;99.90
7000;DHT22;3540;53.242;10.408;2022-08-19T11:16:51;19.90;99.90
7000;DHT22;3540;53.242;10.408;2022-08-19T11:19:19;19.90;99.90
7000;DHT22;3540;53.242;10.408;2022-08-19T11:21:47;19.90;99.90
7000;DHT22;3540;53.242;10.408;2022-08-19T11:24:19;20.00;99.90
7000;DHT22;3540;53.242;10.408;2022-08-19T11:26:45;20.20;99.90
7000;DHT22;3540;53.242;10.408;2022-08-19T11:29:12;20.30;99.90
7000;DHT22;3540;53.242;10.408;2022-08-19T11:31:40;20.30;99.90
7000;DHT22;3540;53.242;10.408;2022-08-19T11:34:10;20.30;99.90
7000;DHT22;3540;53.242;10.408;2022-08-19T11:36:39;20.30;99.90
7000;DHT22;3540;53.242;10.408;2022-08-19T11:39:07;20.20;99.90
7000;DHT22;3540;53.242;10.408;2022-08-19T11:41:33;20.40;99.90
7000;DHT22;3540;53.242;10.408;2022-08-19T11:43:58;20.40;99.90
7000;DHT22;3540;53.242;10.408;2022-08-19T11:46:25;20.50;99.90
7000;DHT22;3540;53.242;10.408;2022-08-19T11:48:57;20.50;99.90
7000;DHT22;3540;53.242;10.408;2022-08-19T11:51:25;20.60;99.90
7000;DHT22;3540;53.242;10.408;2022-08-19T11:53:52;20.60;99.90
7000;DHT22;3540;53.242;10.408;2022-08-19T11:56:19;20.50;99.90
7000;DHT22;3540;53.242;10.408;2022-08-19T11:58:45;20.50;99.90
7000;DHT22;3540;53.242;10.408;2022-08-19T12:01:13;20.40;99.90
7000;DHT22;3540;53.242;10.408;2022-08-19T12:03:42;20.50;99.90
7000;DHT22;3540;53.242;10.408;2022-08-19T12:06:10;20.50;99.90
7000;DHT22;3540;53.242;10.408;2022-08-19T12:08:37;20.60;99.90
7000;DHT22;3540;53.242;10.408;2022-08-19T12:11:04;20.60;99.90
7000;DHT22;3540;53.242;10.408;2022-08-19T12:13:33;20.60;99.90
7000;DHT22;3540;53.242;10.408;2022-08-19T12:15:59;20.60;99.90
7000;DHT22;3540;53.242;10.408;2022-08-19T12:18:25;20.80;99.90
7000;DHT22;3540;53.242;10.408;2022-08-19T12:20:52;20.80;99.90
7000;DHT22;3540;53.242;10.408;2022-08-19T12:23:19;20.70;99.90
7000;DHT22;3540;53.242;10.408;2022-08-19T12:25:47;20.70;99.90
7000;DHT22;3540;53.242;10.408;2022-08-19T12:28:20;20.80;99.90
7000;DHT22;3540;53.242;10.408;2022-08-19T12:30:48;20.80;99.90
7000;DHT22;3540;53.242;10.408;2022-08-19T12:33:14;20.80;99.90
7000;DHT22;3540;53.242;10.408;2022-08-19T12:35:41;20.90;99.90
7000;DHT22;3540;53.242;10.408;2022-08-19T12:38:08;20.90;99.90
7000;DHT22;3540;53.242;10.408;2022-08-19T12:40:33;21.00;99.90
7000;DHT22;3540;53.242;10.408;2022-08-19T12:42:59;20.90;99.90
7000;DHT22;3540;53.242;10.408;2022-08-19T12:45:25;20.90;99.90
7000;DHT22;3540;53.242;10.408;2022-08-19T12:47:51;20.90;99.90
7000;DHT22;3540;53.242;10.408;2022-08-19T12:50:18;20.80;99.90
7000;DHT22;3540;53.242;10.408;2022-08-19T12:52:44;20.90;99.90
7000;DHT22;3540;53.242;10.408;2022-08-19T12:55:10;20.80;99.90
7000;DHT22;3540;53.242;10.408;2022-08-19T12:57:37;20.80;99.90
7000;DHT22;3540;53.242;10.408;2022-08-19T13:00:07;20.80;99.90
7000;DHT22;3540;53.242;10.408;2022-08-19T13:02:36;20.80;99.90
7000;DHT22;3540;53.242;10.408;2022-08-19T13:05:03;21.00;99.90
7000;DHT22;3540;53.242;10.408;2022-08-19T13:07:31;21.10;99.90
7000;DHT22;3540;53.242;10.408;2022-08-19T13:09:57;21.10;99.90
7000;DHT22;3540;53.242;10.408;2022-08-19T13:12:23;21.30;99.90
7000;DHT22;3540;53.242;10.408;2022-08-19T13:14:52;21.50;99.90
7000;DHT22;3540;53.242;10.408;2022-08-19T13:17:18;21.60;99.90
7000;DHT22;3540;53.242;10.408;2022-08-19T13:19:43;21.70;99.90
7000;DHT22;3540;53.242;10.408;2022-08-19T13:22:09;21.80;99.90
7000;DHT22;3540;53.242;10.408;2022-08-19T13:24:35;21.90;99.90
7000;DHT22;3540;53.242;10.408;2022-08-19T13:27:02;21.90;99.90
7000;DHT22;3540;53.242;10.408;2022-08-19T13:29:27;22.00;99.90
7000;DHT22;3540;53.242;10.408;2022-08-19T13:32:12;22.20;99.90
7000;DHT22;3540;53.242;10.408;2022-08-19T13:34:56;22.30;99.90
7000;DHT22;3540;53.242;10.408;2022-08-19T13:37:21;22.10;99.90
7000;DHT22;3540;53.242;10.408;2022-08-19T13:40:08;22.30;99.90
7000;DHT22;3540;53.242;10.408;2022-08-19T13:42:37;22.40;99.90
7000;DHT22;3540;53.242;10.408;2022-08-19T13:45:03;22.50;99.90
7000;DHT22;3540;53.242;10.408;2022-08-19T13:47:30;22.60;99.90
7000;DHT22;3540;53.242;10.408;2022-08-19T13:49:55;22.40;99.90
7000;DHT22;3540;53.242;10.408;2022-08-19T13:52:21;22.50;99.90
7000;DHT22;3540;53.242;10.408;2022-08-19T13:54:47;22.60;99.90
7000;DHT22;3540;53.242;10.408;2022-08-19T13:57:14;22.90;99.90
7000;DHT22;3540;53.242;10.408;2022-08-19T13:59:40;22.90;99.90
7000;DHT22;3540;53.242;10.408;2022-08-19T14:02:06;22.90;99.90
7000;DHT22;3540;53.242;10.408;2022-08-19T14:04:32;23.00;99.90
7000;DHT22;3540;53.242;10.408;2022-08-19T14:06:57;23.10;99.90
7000;DHT22;3540;53.242;10.408;2022-08-19T14:09:23;22.90;99.90
7000;DHT22;3540;53.242;10.408;2022-08-19T14:11:49;22.60;99.90
7000;DHT22;3540;53.242;10.408;2022-08-19T14:14:16;22.70;99.90
7000;DHT22;3540;53.242;10.408;2022-08-19T14:16:41;22.80;99.90
7000;DHT22;3540;53.242;10.408;2022-08-19T14:19:08;22.90;99.90
7000;DHT22;3540;53.242;10.408;2022-08-19T14:21:33;22.90;99.90
7000;DHT22;3540;53.242;10.408;2022-08-19T14:24:01;22.90;99.90
7000;DHT22;3540;53.242;10.408;2022-08-19T14:26:26;22.80;99.90
7000;DHT22;3540;53.242;10.408;2022-08-19T14:28:52;22.80;99.90
7000;DHT22;3540;53.242;10.408;2022-08-19T14:31:19;22.60;99.90
7000;DHT22;3540;53.242;10.408;2022-08-19T14:33:46;22.60;99.90
7000;DHT22;3540;53.242;10.408;2022-08-19T14:36:13;22.70;99.90
7000;DHT22;3540;53.242;10.408;2022-08-19T14:38:38;23.00;99.90
7000;DHT22;3540;53.242;10.408;2022-08-19T14:41:19;23.30;99.90
7000;DHT22;3540;53.242;10.408;2022-08-19T14:43:46;23.60;99.90
7000;DHT22;3540;53.242;10.408;2022-08-19T14:46:18;23.90;99.90
7000;DHT22;3540;53.242;10.408;2022-08-19T14:48:48;24.50;99.90
7000;DHT22;3540;53.242;10.408;2022-08-19T14:51:14;23.80;99.90
7000;DHT22;3540;53.242;10.408;2022-08-19T14:53:41;24.20;99.90
7000;DHT22;3540;53.242;10.408;2022-08-19T14:56:12;24.50;99.90
7000;DHT22;3540;53.242;10.408;2022-08-19T14:58:39;24.60;99.90
7000;DHT22;3540;53.242;10.408;2022-08-19T15:01:06;24.60;99.90
7000;DHT22;3540;53.242;10.408;2022-08-19T15:03:32;24.20;99.90
7000;DHT22;3540;53.242;10.408;2022-08-19T15:05:59;24.20;99.90
7000;DHT22;3540;53.242;10.408;2022-08-19T15:08:27;24.50;99.90
7000;DHT22;3540;53.242;10.408;2022-08-19T15:10:54;24.60;99.90
7000;DHT22;3540;53.242;10.408;2022-08-19T15:13:19;24.70;99.90
7000;DHT22;3540;53.242;10.408;2022-08-19T15:15:47;24.50;99.90
7000;DHT22;3540;53.242;10.408;2022-08-19T15:18:13;24.50;99.90
7000;DHT22;3540;53.242;10.408;2022-08-19T15:20:39;24.40;99.90
7000;DHT22;3540;53.242;10.408;2022-08-19T15:23:06;24.20;99.90
7000;DHT22;3540;53.242;10.408;2022-08-19T15:25:31;24.50;99.90
7000;DHT22;3540;53.242;10.408;2022-08-19T15:27:58;24.50;99.90
7000;DHT22;3540;53.242;10.408;2022-08-19T15:30:27;24.40;99.90
7000;DHT22;3540;53.242;10.408;2022-08-19T15:32:55;24.80;99.90
7000;DHT22;3540;53.242;10.408;2022-08-19T15:35:22;24.60;99.90
7000;DHT22;3540;53.242;10.408;2022-08-19T15:37:50;24.60;99.90
7000;DHT22;3540;53.242;10.408;2022-08-19T15:40:16;24.60;99.90
7000;DHT22;3540;53.242;10.408;2022-08-19T15:42:42;24.70;99.90
7000;DHT22;3540;53.242;10.408;2022-08-19T15:45:10;24.70;99.90
7000;DHT22;3540;53.242;10.408;2022-08-19T15:47:37;24.80;99.90
7000;DHT22;3540;53.242;10.408;2022-08-19T15:50:14;25.10;99.90
7000;DHT22;3540;53.242;10.408;2022-08-19T15:52:52;25.20;99.90
7000;DHT22;3540;53.242;10.408;2022-08-19T15:55:21;25.70;99.90
7000;DHT22;3540;53.242;10.408;2022-08-19T15:57:47;25.40;99.90
7000;DHT22;3540;53.242;10.408;2022-08-19T16:00:31;24.90;99.90
7000;DHT22;3540;53.242;10.408;2022-08-19T16:03:15;25.10;99.90
7000;DHT22;3540;53.242;10.408;2022-08-19T16:06:00;25.20;99.90